Time;durP1;ratioP1;P1;durP2;ratioP2;P2;SDS_P1;SDS_P2;PMS_P1;PMS_P2;Temp;Humidity;BMP_temperature;BMP_pressure;BME280_temperature;BME280_humidity;BME280_pressure;Samples;Min_cycle;Max_cycle;Signal;HPM_P1;HPM_P2
2022/06/24 00:02:20;;;;;;;13.45;4.43;;;;;;;17.31;100.00;92378.19;4756314;30;20120;-75
2022/06/24 00:04:54;;;;;;;13.90;5.13;;;;;;;17.31;100.00;92375.56;4786851;30;20074;-74
2022/06/24 00:07:20;;;;;;;12.65;4.43;;;;;;;17.30;100.00;92369.50;4800573;29;20038;-75
2022/06/24 00:09:47;;;;;;;16.55;5.55;;;;;;;17.32;100.00;92371.81;4804905;29;20034;-75
2022/06/24 00:12:18;;;;;;;13.60;4.75;;;;;;;17.33;100.00;92362.78;4804766;29;20050;-75
2022/06/24 00:14:45;;;;;;;20.95;4.57;;;;;;;17.32;100.00;92371.81;4788640;29;20046;-75
2022/06/24 00:17:13;;;;;;;18.25;4.82;;;;;;;17.27;100.00;92370.94;4803824;29;20038;-75
2022/06/24 00:19:57;;;;;;;11.73;4.43;;;;;;;17.27;100.00;92373.59;4792053;29;20073;-75
2022/06/24 00:22:24;;;;;;;11.27;4.80;;;;;;;17.26;100.00;92374.66;4786810;30;20047;-75
2022/06/24 00:25:12;;;;;;;15.57;4.70;;;;;;;17.23;100.00;92377.97;4787016;30;20031;-75
2022/06/24 00:27:40;;;;;;;11.32;4.60;;;;;;;17.17;100.00;92370.59;4770617;30;20051;-75
2022/06/24 00:30:13;;;;;;;19.40;4.60;;;;;;;17.16;100.00;92374.34;4770909;30;20031;-74
2022/06/24 00:32:39;;;;;;;11.93;4.78;;;;;;;17.16;100.00;92375.13;4786413;30;20035;-75
2022/06/24 00:35:17;;;;;;;14.88;5.65;;;;;;;17.16;100.00;92379.63;4786405;30;20061;-75
2022/06/24 00:37:44;;;;;;;13.70;3.92;;;;;;;17.17;100.00;92378.53;4786865;30;20727;-75
2022/06/24 00:40:10;;;;;;;14.88;5.35;;;;;;;17.19;100.00;92373.69;4786482;30;20031;-75
2022/06/24 00:42:44;;;;;;;15.38;5.53;;;;;;;17.20;100.00;92365.44;4798154;29;20038;-74
2022/06/24 00:45:41;;;;;;;15.93;6.10;;;;;;;17.23;100.00;92358.69;4804242;29;20047;-75
2022/06/24 00:48:18;;;;;;;12.10;4.68;;;;;;;17.26;100.00;92363.31;4787649;29;20128;-75
2022/06/24 00:50:46;;;;;;;14.98;4.40;;;;;;;17.24;100.00;92363.63;4804359;29;20513;-75
2022/06/24 00:53:13;;;;;;;15.23;4.90;;;;;;;17.24;100.00;92361.00;4773400;29;20510;-75
2022/06/24 00:55:41;;;;;;;13.32;5.47;;;;;;;17.24;100.00;92344.34;4804051;29;20045;-75
2022/06/24 00:58:13;;;;;;;21.63;5.18;;;;;;;17.21;100.00;92353.72;4804201;29;20073;-75
2022/06/24 01:00:42;;;;;;;22.63;5.32;;;;;;;17.23;100.00;92350.75;4803841;29;20039;-75
2022/06/24 01:03:07;;;;;;;22.10;5.72;;;;;;;17.20;100.00;92360.13;4802848;29;20035;-75
2022/06/24 01:05:33;;;;;;;17.30;5.72;;;;;;;17.19;100.00;92349.88;4803967;29;20047;-75
2022/06/24 01:08:08;;;;;;;21.08;5.18;;;;;;;17.18;100.00;92357.03;4791065;29;20080;-75
2022/06/24 01:10:35;;;;;;;21.67;5.50;;;;;;;17.19;100.00;92347.22;4786022;30;20045;-75
2022/06/24 01:13:01;;;;;;;19.10;5.45;;;;;;;17.20;100.00;92348.75;4769894;30;20520;-74
2022/06/24 01:15:27;;;;;;;15.35;5.85;;;;;;;17.18;100.00;92349.09;4786076;30;20525;-75
2022/06/24 01:17:52;;;;;;;16.27;4.90;;;;;;;17.17;100.00;92346.78;4785775;30;20039;-75
2022/06/24 01:20:18;;;;;;;17.23;5.10;;;;;;;17.14;100.00;92342.16;4759287;29;20351;-75
2022/06/24 01:22:44;;;;;;;16.52;5.20;;;;;;;17.11;100.00;92346.22;4769929;30;20058;-75
2022/06/24 01:25:11;;;;;;;17.15;5.57;;;;;;;17.10;100.00;92346.56;4785549;30;20506;-75
2022/06/24 01:27:38;;;;;;;16.52;5.22;;;;;;;17.10;100.00;92335.97;4769583;30;20578;-75
2022/06/24 01:30:04;;;;;;;22.17;5.43;;;;;;;17.13;100.00;92336.09;4784384;30;20043;-75
2022/06/24 01:32:30;;;;;;;23.35;6.18;;;;;;;17.24;100.00;92345.13;4769548;30;20125;-75
2022/06/24 01:34:56;;;;;;;23.50;5.70;;;;;;;17.22;100.00;92335.97;4784320;30;20475;-75
2022/06/24 01:37:23;;;;;;;21.70;5.47;;;;;;;17.19;100.00;92339.28;4784641;30;20120;-74
2022/06/24 01:39:48;;;;;;;17.73;5.63;;;;;;;17.17;100.00;92339.63;4785412;30;20043;-75
2022/06/24 01:42:14;;;;;;;15.10;6.05;;;;;;;17.18;100.00;92335.88;4785531;30;20058;-75
2022/06/24 01:44:39;;;;;;;16.42;4.80;;;;;;;17.18;100.00;92324.50;4785900;29;20120;-75
2022/06/24 01:47:05;;;;;;;23.08;6.03;;;;;;;17.18;100.00;92325.31;4784279;30;20059;-75
2022/06/24 01:49:31;;;;;;;14.98;5.03;;;;;;;17.23;100.00;92333.00;4785586;30;20043;-75
2022/06/24 01:51:59;;;;;;;18.27;5.07;;;;;;;17.21;100.00;92332.56;4785589;30;20552;-75
2022/06/24 01:54:25;;;;;;;22.05;6.25;;;;;;;17.21;100.00;92329.94;4785514;30;20039;-74
2022/06/24 01:56:50;;;;;;;16.52;5.50;;;;;;;17.19;100.00;92342.72;4784507;30;20400;-75
2022/06/24 01:59:16;;;;;;;13.93;5.35;;;;;;;17.19;100.00;92329.47;4784208;30;20107;-75
2022/06/24 02:01:42;;;;;;;18.05;6.07;;;;;;;17.18;100.00;92335.88;4785514;29;20083;-75
2022/06/24 02:04:09;;;;;;;28.33;6.13;;;;;;;17.15;100.00;92339.16;4785345;30;20047;-75
2022/06/24 02:06:34;;;;;;;15.05;5.68;;;;;;;17.21;100.00;92334.44;4784310;30;20054;-75
2022/06/24 02:09:00;;;;;;;23.05;6.95;;;;;;;17.20;100.00;92319.66;4772277;30;20406;-75
2022/06/24 02:14:11;;;;;;;13.32;5.90;;;;;;;17.19;100.00;92326.84;4772513;30;20147;-75
2022/06/24 02:16:37;;;;;;;13.90;5.82;;;;;;;17.17;100.00;92318.47;4788825;30;20463;-75
2022/06/24 02:19:03;;;;;;;27.67;6.45;;;;;;;17.15;100.00;92320.66;4772521;30;20057;-74
2022/06/24 02:21:29;;;;;;;16.52;6.65;;;;;;;17.16;100.00;92321.44;4791565;29;20039;-75
2022/06/24 02:23:55;;;;;;;19.15;6.05;;;;;;;17.13;100.00;92317.56;4806518;29;20594;-75
2022/06/24 02:26:21;;;;;;;17.40;5.75;;;;;;;17.12;100.00;92304.69;4790609;29;20171;-75
2022/06/24 02:28:46;;;;;;;19.42;6.20;;;;;;;17.08;100.00;92304.56;4806743;29;20482;-75
2022/06/24 02:31:12;;;;;;;23.08;6.40;;;;;;;17.05;100.00;92308.66;4806518;29;20149;-75
2022/06/24 02:33:38;;;;;;;21.42;7.03;;;;;;;17.04;100.00;92314.25;4803517;29;20027;-75
2022/06/24 02:36:06;;;;;;;18.67;6.38;;;;;;;17.02;100.00;92316.47;4787043;30;20544;-75
2022/06/24 02:38:32;;;;;;;25.92;6.57;;;;;;;17.00;100.00;92316.00;4772413;30;20074;-75
2022/06/24 02:40:58;;;;;;;18.90;6.28;;;;;;;16.97;100.00;92308.75;4757308;30;20035;-74
2022/06/24 02:43:32;;;;;;;19.60;6.47;;;;;;;16.97;100.00;92306.09;4788330;30;20047;-75
2022/06/24 02:46:02;;;;;;;19.38;7.05;;;;;;;16.96;100.00;92307.22;4792142;29;20118;-75
2022/06/24 02:48:30;;;;;;;23.52;7.40;;;;;;;16.94;100.00;92304.13;4798957;29;20035;-75
2022/06/24 02:50:57;;;;;;;25.08;6.40;;;;;;;16.93;100.00;92307.88;4772011;30;20031;-75
2022/06/24 02:53:23;;;;;;;19.40;6.60;;;;;;;16.93;100.00;92306.00;4772087;30;20075;-75
2022/06/24 02:55:52;;;;;;;17.45;6.60;;;;;;;16.95;100.00;92310.94;4788078;30;20039;-76
2022/06/24 02:58:18;;;;;;;32.40;8.18;;;;;;;16.99;100.00;92307.31;4771913;30;20494;-74
2022/06/24 03:00:44;;;;;;;31.83;8.13;;;;;;;16.97;100.00;92290.25;4773801;29;20157;-75
2022/06/24 03:03:12;;;;;;;25.80;6.78;;;;;;;16.98;100.00;92297.09;4806053;29;20042;-75
2022/06/24 03:05:38;;;;;;;24.25;5.70;;;;;;;16.96;100.00;92301.94;4805969;29;20042;-75
2022/06/24 03:08:04;;;;;;;25.27;6.75;;;;;;;16.92;100.00;92288.59;4805915;29;20463;-74
2022/06/24 03:10:31;;;;;;;22.33;6.40;;;;;;;16.93;100.00;92292.00;4805840;29;20054;-75
2022/06/24 03:12:56;;;;;;;25.27;7.05;;;;;;;16.96;100.00;92296.66;4773948;30;20035;-75
2022/06/24 03:15:22;;;;;;;27.00;7.13;;;;;;;16.96;100.00;92304.59;4786590;30;20050;-75
2022/06/24 03:17:48;;;;;;;28.55;7.18;;;;;;;16.96;100.00;92299.28;4756959;30;20108;-75
2022/06/24 03:20:14;;;;;;;28.08;8.23;;;;;;;16.98;100.00;92300.50;4770673;30;20067;-76
2022/06/24 03:22:39;;;;;;;28.48;8.10;;;;;;;16.99;100.00;92296.75;4786638;30;20048;-75
2022/06/24 03:25:06;;;;;;;22.35;7.38;;;;;;;17.02;100.00;92293.47;4798007;29;20045;-75
2022/06/24 03:27:33;;;;;;;25.95;7.28;;;;;;;17.03;100.00;92289.69;4805273;29;20030;-75
2022/06/24 03:29:59;;;;;;;23.17;7.25;;;;;;;17.04;100.00;92303.69;4805616;29;20501;-74
2022/06/24 03:32:24;;;;;;;30.23;6.93;;;;;;;17.04;100.00;92304.47;4805558;29;20034;-75
2022/06/24 03:34:50;;;;;;;24.25;6.68;;;;;;;17.02;100.00;92306.69;4805361;29;20070;-75
2022/06/24 03:37:16;;;;;;;27.02;7.30;;;;;;;17.01;100.00;92309.66;4774584;29;20038;-75
2022/06/24 03:39:41;;;;;;;25.98;8.07;;;;;;;17.02;100.00;92306.69;4759670;29;20049;-75
2022/06/24 03:42:07;;;;;;;26.30;6.88;;;;;;;17.01;100.00;92301.72;4774283;29;20058;-74
2022/06/24 03:44:33;;;;;;;19.50;7.20;;;;;;;16.98;100.00;92311.06;4805232;29;20126;-74
2022/06/24 03:46:58;;;;;;;23.92;6.18;;;;;;;16.98;100.00;92308.44;4805271;29;20051;-75
2022/06/24 03:49:24;;;;;;;22.75;6.88;;;;;;;16.95;100.00;92306.44;4793211;29;20051;-75
2022/06/24 03:51:50;;;;;;;27.40;7.00;;;;;;;16.94;100.00;92309.44;4774180;29;20132;-75
2022/06/24 03:54:15;;;;;;;25.60;7.10;;;;;;;16.94;100.00;92299.63;4805048;29;20043;-75
2022/06/24 03:56:41;;;;;;;28.83;7.03;;;;;;;16.95;100.00;92300.38;4805046;29;20515;-75
2022/06/24 03:59:07;;;;;;;25.75;6.80;;;;;;;16.94;100.00;92304.91;4805012;29;20536;-75
2022/06/24 04:01:32;;;;;;;33.17;7.43;;;;;;;16.96;100.00;92296.66;4800686;29;20121;-75
2022/06/24 04:03:58;;;;;;;32.03;7.95;;;;;;;16.95;100.00;92290.56;4803595;29;20074;-75
2022/06/24 04:06:24;;;;;;;29.42;7.65;;;;;;;16.92;100.00;92287.81;4818926;29;20054;-74
2022/06/24 04:08:49;;;;;;;27.33;7.13;;;;;;;16.90;100.00;92293.44;4805233;29;20073;-75
2022/06/24 04:11:16;;;;;;;26.48;7.18;;;;;;;16.90;100.00;92292.66;4805362;29;20050;-75
2022/06/24 04:13:43;;;;;;;32.97;7.10;;;;;;;16.90;100.00;92284.75;4818697;29;20433;-75
2022/06/24 04:16:09;;;;;;;26.33;8.45;;;;;;;16.89;100.00;92275.25;4787526;29;20080;-75
2022/06/24 04:18:35;;;;;;;29.50;7.55;;;;;;;16.88;100.00;92285.06;4803436;29;20055;-75
2022/06/24 04:21:01;;;;;;;35.17;9.30;;;;;;;16.90;100.00;92297.97;4804895;29;20042;-75
2022/06/24 04:23:26;;;;;;;32.03;7.35;;;;;;;16.91;100.00;92302.94;4804710;29;20111;-75
2022/06/24 04:25:53;;;;;;;28.40;8.05;;;;;;;16.93;100.00;92306.00;4804674;29;20046;-75
2022/06/24 04:28:19;;;;;;;28.75;7.00;;;;;;;16.98;100.00;92299.75;4804885;29;20047;-75
2022/06/24 04:30:44;;;;;;;25.67;7.05;;;;;;;17.02;100.00;92296.09;4818338;29;20457;-75
2022/06/24 04:33:10;;;;;;;35.45;8.40;;;;;;;17.03;100.00;92294.22;4803320;29;20039;-75
2022/06/24 04:35:36;;;;;;;23.95;7.05;;;;;;;17.06;100.00;92293.56;4803285;29;20508;-75
2022/06/24 04:38:01;;;;;;;28.77;6.35;;;;;;;17.08;100.00;92294.00;4804935;29;20035;-75
2022/06/24 04:40:27;;;;;;;18.20;6.25;;;;;;;17.11;100.00;92297.84;4795004;29;20051;-75
2022/06/24 04:42:53;;;;;;;23.25;5.78;;;;;;;17.12;100.00;92297.53;4786339;30;20115;-74
2022/06/24 04:45:18;;;;;;;25.40;5.85;;;;;;;17.14;100.00;92297.22;4786460;30;20073;-75
2022/06/24 04:47:44;;;;;;;27.02;6.68;;;;;;;17.17;100.00;92296.53;4786771;29;20120;-75
2022/06/24 04:50:10;;;;;;;18.42;5.93;;;;;;;17.19;100.00;92289.81;4804210;29;20093;-74
2022/06/24 04:52:38;;;;;;;25.70;5.82;;;;;;;17.22;100.00;92283.09;4770135;30;20043;-74
2022/06/24 04:55:04;;;;;;;22.55;6.20;;;;;;;17.27;100.00;92277.59;4784986;30;20055;-75
2022/06/24 04:57:29;;;;;;;19.75;6.40;;;;;;;17.32;100.00;92271.31;4799925;29;20039;-75
2022/06/24 04:59:55;;;;;;;17.75;6.85;;;;;;;17.37;100.00;92273.72;4768893;30;20066;-75
2022/06/24 05:02:21;;;;;;;23.35;6.60;;;;;;;17.45;100.00;92281.53;4785945;30;20491;-75
2022/06/24 05:04:47;;;;;;;17.27;5.97;;;;;;;17.56;100.00;92295.06;4773294;30;20039;-75
2022/06/24 05:07:12;;;;;;;18.48;6.25;;;;;;;17.56;100.00;92296.94;4769905;30;20043;-75
2022/06/24 05:09:38;;;;;;;23.20;5.50;;;;;;;17.59;100.00;92302.34;4784844;30;20522;-75
2022/06/24 05:12:04;;;;;;;16.95;5.35;;;;;;;17.62;98.93;92304.31;4769731;30;20114;-75
2022/06/24 05:14:30;;;;;;;19.15;6.30;;;;;;;17.62;99.85;92304.31;4785769;30;20051;-75
2022/06/24 05:16:59;;;;;;;20.20;6.15;;;;;;;17.62;100.00;92306.97;4785872;30;20119;-75
2022/06/24 05:19:25;;;;;;;28.15;6.10;;;;;;;17.65;98.74;92303.66;4785817;30;20089;-75
2022/06/24 05:21:51;;;;;;;21.67;6.82;;;;;;;17.67;100.00;92306.75;4770085;30;20079;-75
2022/06/24 05:24:17;;;;;;;18.85;5.72;;;;;;;17.71;99.93;92306.06;4785727;30;20078;-75
2022/06/24 05:26:44;;;;;;;24.58;5.95;;;;;;;17.71;99.72;92319.31;4755138;30;20035;-75
2022/06/24 05:29:10;;;;;;;20.02;5.82;;;;;;;17.74;99.99;92318.63;4786116;30;20501;-75
2022/06/24 05:31:36;;;;;;;24.92;5.80;;;;;;;17.76;99.26;92317.19;4769825;30;20525;-75
2022/06/24 05:34:02;;;;;;;16.27;5.72;;;;;;;17.77;98.97;92325.91;4785695;30;20055;-75
2022/06/24 05:36:28;;;;;;;24.65;5.32;;;;;;;17.83;98.49;92312.16;4769723;30;20089;-74
2022/06/24 05:38:53;;;;;;;23.73;6.65;;;;;;;17.88;98.25;92308.50;4769548;30;20071;-75
2022/06/24 05:41:19;;;;;;;18.60;5.65;;;;;;;17.89;98.54;92304.72;4786068;30;20032;-75
2022/06/24 05:43:46;;;;;;;21.73;5.95;;;;;;;17.89;100.00;92302.84;4787688;29;20043;-75
2022/06/24 05:46:12;;;;;;;14.40;5.20;;;;;;;17.97;99.93;92300.38;4789327;30;20387;-75
2022/06/24 05:48:38;;;;;;;22.42;6.30;;;;;;;18.06;99.49;92288.56;4773325;30;20093;-75
2022/06/24 05:51:09;;;;;;;20.02;5.75;;;;;;;18.19;97.76;92291.91;4789308;30;20047;-75
2022/06/24 05:56:20;;;;;;;23.67;7.07;;;;;;;18.73;94.10;92294.09;4790792;29;20292;-75
2022/06/24 05:58:46;;;;;;;18.50;5.68;;;;;;;19.40;88.08;92295.28;4793051;29;20098;-75
2022/06/24 06:01:12;;;;;;;16.00;5.10;;;;;;;19.95;82.74;92298.78;4757237;30;20053;-75
2022/06/24 06:03:38;;;;;;;24.83;5.97;;;;;;;19.59;82.99;92294.56;4788965;30;20043;-75
2022/06/24 06:06:03;;;;;;;18.83;5.25;;;;;;;19.10;86.16;92304.47;4773168;30;20039;-75
2022/06/24 06:08:29;;;;;;;29.58;5.63;;;;;;;18.97;93.25;92299.59;4772844;30;20043;-74
2022/06/24 06:10:55;;;;;;;16.45;6.55;;;;;;;18.82;92.76;92301.13;4788731;29;20062;-75
2022/06/24 06:13:20;;;;;;;21.52;6.30;;;;;;;18.66;89.92;92298.44;4773264;30;20039;-76
2022/06/24 06:15:46;;;;;;;21.80;6.30;;;;;;;18.52;89.13;92301.50;4784379;29;20047;-75
2022/06/24 06:18:11;;;;;;;20.13;5.97;;;;;;;18.47;92.76;92307.06;4794763;29;20034;-75
2022/06/24 06:20:37;;;;;;;20.33;6.82;;;;;;;18.45;93.91;92304.72;4803533;29;20035;-75
2022/06/24 06:23:04;;;;;;;24.50;7.90;;;;;;;18.59;90.94;92314.16;4787003;29;20411;-74
2022/06/24 06:25:31;;;;;;;24.52;5.38;;;;;;;18.54;90.73;92317.84;4800203;29;20046;-78
2022/06/24 06:27:57;;;;;;;22.88;6.00;;;;;;;18.32;91.84;92308.53;4790957;30;20039;-79
2022/06/24 06:30:22;;;;;;;16.00;4.78;;;;;;;18.27;92.90;92319.38;4796146;29;20134;-80
2022/06/24 06:32:48;;;;;;;26.45;6.72;;;;;;;18.29;93.59;92306.59;4788998;29;20039;-80
2022/06/24 06:35:13;;;;;;;28.98;6.07;;;;;;;18.43;93.05;92312.25;4797316;29;20099;-83
2022/06/24 06:37:39;;;;;;;29.67;5.82;;;;;;;18.44;89.66;92313.00;4802529;29;20046;-82
2022/06/24 06:40:05;;;;;;;21.88;6.22;;;;;;;18.30;91.16;92318.72;4800756;29;20059;-80
2022/06/24 06:42:31;;;;;;;23.25;5.88;;;;;;;18.19;93.67;92320.28;4805988;29;20066;-81
2022/06/24 06:44:57;;;;;;;19.55;5.95;;;;;;;18.20;92.07;92321.84;4808284;29;20118;-81
2022/06/24 06:47:23;;;;;;;20.33;6.88;;;;;;;18.18;91.81;92316.13;4814471;29;20043;-82
2022/06/24 06:49:48;;;;;;;17.73;5.75;;;;;;;18.05;92.68;92318.78;4804695;29;20046;-81
2022/06/24 06:52:14;;;;;;;19.30;5.97;;;;;;;18.05;94.15;92318.78;4793270;30;20042;-81
2022/06/24 06:54:40;;;;;;;17.58;5.28;;;;;;;18.08;94.39;92317.34;4793012;29;20081;-79
2022/06/24 06:57:05;;;;;;;27.50;6.55;;;;;;;18.02;92.98;92321.34;4782966;29;20034;-82
2022/06/24 06:59:31;;;;;;;16.92;5.65;;;;;;;18.04;93.67;92319.91;4789964;29;20027;-80
2022/06/24 07:01:57;;;;;;;21.30;6.68;;;;;;;17.86;94.43;92316.75;4812365;29;20046;-80
2022/06/24 07:04:22;;;;;;;23.05;6.00;;;;;;;17.94;94.53;92316.97;4812345;29;20035;-83
2022/06/24 07:06:49;;;;;;;28.00;6.15;;;;;;;17.96;94.59;92304.16;4790232;29;20042;-81
2022/06/24 07:09:14;;;;;;;27.42;6.90;;;;;;;17.98;94.95;92312.53;4820079;29;20039;-82
2022/06/24 07:11:40;;;;;;;26.67;6.38;;;;;;;18.04;94.27;92322.56;4799192;29;20076;-81
2022/06/24 07:14:06;;;;;;;17.92;6.18;;;;;;;18.03;95.33;92321.00;4813585;29;20107;-79
2022/06/24 07:16:32;;;;;;;22.70;5.78;;;;;;;18.14;93.97;92310.72;4813724;29;20478;-79
2022/06/24 07:18:57;;;;;;;27.40;6.15;;;;;;;18.23;93.71;92306.03;4815746;29;20034;-81
2022/06/24 07:21:23;;;;;;;24.75;5.40;;;;;;;18.27;91.89;92314.84;4829867;29;20034;-81
2022/06/24 07:23:48;;;;;;;23.95;6.28;;;;;;;18.23;93.29;92310.56;4828125;29;20094;-80
2022/06/24 07:26:14;;;;;;;26.90;7.75;;;;;;;18.11;94.12;92311.41;4821953;29;20051;-80
2022/06/24 07:28:39;;;;;;;26.77;6.38;;;;;;;18.16;93.20;92323.63;4805599;29;20030;-79
2022/06/24 07:31:31;;;;;;;17.10;5.45;;;;;;;18.16;93.02;92324.41;4832379;29;20046;-80
2022/06/24 07:33:57;;;;;;;22.33;5.22;;;;;;;18.19;90.33;92323.72;4828220;29;20062;-79
2022/06/24 07:36:23;;;;;;;25.05;6.18;;;;;;;18.16;91.10;92313.03;4818666;29;20031;-79
2022/06/24 07:38:48;;;;;;;28.60;5.95;;;;;;;18.07;91.49;92308.63;4800086;29;20047;-79
2022/06/24 07:41:14;;;;;;;38.08;6.53;;;;;;;18.08;91.22;92310.19;4798326;29;20115;-79
2022/06/24 07:43:39;;;;;;;31.77;5.90;;;;;;;18.12;93.32;92293.63;4804217;29;20413;-80
2022/06/24 07:46:08;;;;;;;23.20;5.72;;;;;;;18.16;92.52;92283.91;4820039;29;20038;-78
2022/06/24 07:48:35;;;;;;;30.85;6.88;;;;;;;18.20;91.86;92296.13;4835224;29;20046;-79
2022/06/24 07:51:15;;;;;;;24.80;6.15;;;;;;;18.16;90.64;92297.91;4812444;29;20111;-80
2022/06/24 07:53:42;;;;;;;30.17;6.50;;;;;;;18.02;92.46;92298.28;4827974;29;20046;-79
2022/06/24 07:58:52;;;;;;;26.20;6.40;;;;;;;18.02;91.73;92298.28;4827458;29;20065;-80
2022/06/24 08:01:18;;;;;;;32.30;6.55;;;;;;;17.91;93.67;92285.88;4812543;29;20706;-79
2022/06/24 08:03:44;;;;;;;29.73;7.25;;;;;;;18.00;94.34;92274.00;4777638;29;20126;-79
2022/06/24 08:06:10;;;;;;;26.30;6.20;;;;;;;17.94;94.43;92280.66;4808204;29;20039;-78
2022/06/24 08:08:36;;;;;;;24.98;7.22;;;;;;;18.01;95.63;92272.94;4808160;29;20030;-78
2022/06/24 08:11:02;;;;;;;31.08;8.45;;;;;;;18.08;95.85;92275.75;4808583;29;20126;-80
2022/06/24 08:13:29;;;;;;;24.27;7.07;;;;;;;18.21;94.39;92286.28;4791845;29;20131;-78
2022/06/24 08:15:55;;;;;;;25.67;7.72;;;;;;;18.23;94.75;92294.69;4792397;29;20463;-79
2022/06/24 08:18:21;;;;;;;26.50;6.95;;;;;;;18.17;96.21;92278.28;4809143;29;20085;-79
2022/06/24 08:20:46;;;;;;;32.55;7.82;;;;;;;18.16;96.29;92283.91;4791934;29;20137;-79
2022/06/24 08:23:12;;;;;;;34.45;7.97;;;;;;;18.13;94.24;92276.63;4801253;29;20106;-78
2022/06/24 08:25:37;;;;;;;25.92;7.93;;;;;;;18.11;94.45;92269.00;4801939;29;20063;-79
2022/06/24 08:28:03;;;;;;;31.20;7.50;;;;;;;18.04;95.25;92259.00;4791365;29;20529;-78
2022/06/24 08:30:29;;;;;;;28.70;8.50;;;;;;;17.98;97.24;92262.22;4808247;29;20066;-79
2022/06/24 08:32:54;;;;;;;37.13;9.10;;;;;;;17.99;98.01;92251.31;4792951;29;20070;-80
2022/06/24 08:35:20;;;;;;;24.90;7.30;;;;;;;18.29;94.19;92267.59;4792081;29;20104;-79
2022/06/24 08:37:46;;;;;;;29.77;8.80;;;;;;;18.23;94.83;92266.31;4808243;29;20095;-79
2022/06/24 08:40:12;;;;;;;34.80;7.50;;;;;;;18.74;93.23;92273.66;4807670;29;20039;-78
2022/06/24 08:42:38;;;;;;;29.05;7.82;;;;;;;19.01;87.29;92271.28;4807732;29;20494;-78
2022/06/24 08:45:05;;;;;;;31.25;6.90;;;;;;;19.38;87.13;92263.78;4807258;29;20067;-79
2022/06/24 08:47:31;;;;;;;31.75;7.05;;;;;;;19.48;86.92;92263.25;4809585;29;20049;-79
2022/06/24 08:49:57;;;;;;;35.33;7.65;;;;;;;19.69;89.09;92257.66;4808551;29;20043;-79
2022/06/24 08:52:22;;;;;;;28.17;5.85;;;;;;;19.80;85.78;92255.22;4808784;29;20134;-80
2022/06/24 08:54:49;;;;;;;29.92;7.10;;;;;;;19.65;84.67;92246.16;4766163;30;20042;-79
2022/06/24 08:57:15;;;;;;;33.53;6.60;;;;;;;19.28;83.87;92243.09;4788873;30;20042;-78
2022/06/24 08:59:45;;;;;;;24.52;7.03;;;;;;;19.25;85.10;92241.91;4792182;29;20043;-78
2022/06/24 09:02:14;;;;;;;29.45;6.43;;;;;;;19.03;87.52;92245.97;4763160;29;20103;-78
2022/06/24 09:04:44;;;;;;;42.35;7.13;;;;;;;19.13;86.40;92247.31;4806139;29;20122;-77
2022/06/24 09:07:23;;;;;;;30.13;6.97;;;;;;;19.65;84.22;92243.50;4791243;29;20142;-79
2022/06/24 09:10:00;;;;;;;42.50;7.03;;;;;;;19.94;84.29;92236.13;4807461;29;20129;-78
2022/06/24 09:12:30;;;;;;;28.60;6.78;;;;;;;19.81;85.18;92242.69;4819443;29;20096;-79
2022/06/24 09:15:01;;;;;;;29.70;6.97;;;;;;;19.83;85.77;92245.78;4793176;29;20050;-77
2022/06/24 09:17:29;;;;;;;23.67;6.20;;;;;;;19.81;85.52;92245.34;4791175;29;20053;-78
2022/06/24 09:20:03;;;;;;;42.97;7.88;;;;;;;19.61;85.90;92250.63;4807339;29;20043;-77
2022/06/24 09:22:29;;;;;;;25.30;7.30;;;;;;;19.88;85.99;92240.19;4807935;29;20090;-78
2022/06/24 09:24:55;;;;;;;31.80;7.22;;;;;;;19.85;85.89;92246.22;4791695;29;20046;-79
2022/06/24 09:27:21;;;;;;;25.67;6.78;;;;;;;19.78;84.50;92238.09;4812950;29;20042;-78
2022/06/24 09:29:50;;;;;;;28.60;8.27;;;;;;;20.11;83.64;92245.59;4781878;29;20043;-79
2022/06/24 09:32:16;;;;;;;30.02;7.15;;;;;;;20.57;82.77;92251.75;4807352;29;20043;-77
2022/06/24 09:35:06;;;;;;;32.45;6.63;;;;;;;20.72;81.18;92257.31;4798576;29;20034;-77
2022/06/24 09:37:45;;;;;;;29.23;7.25;;;;;;;20.64;79.59;92274.28;4799974;29;20062;-79
2022/06/24 09:40:25;;;;;;;28.92;7.40;;;;;;;20.04;81.60;92261.38;4824163;29;20125;-79
2022/06/24 09:42:55;;;;;;;32.47;7.82;;;;;;;20.05;82.63;92258.38;4826830;29;20076;-77
2022/06/24 09:45:22;;;;;;;27.30;7.13;;;;;;;20.65;80.71;92262.50;4812217;29;20034;-80
2022/06/24 09:47:51;;;;;;;27.17;7.35;;;;;;;20.90;78.56;92253.06;4790638;29;20078;-78
2022/06/24 09:50:21;;;;;;;16.92;5.70;;;;;;;20.68;79.08;92253.84;4807488;29;20126;-79
2022/06/24 09:52:47;;;;;;;23.98;6.60;;;;;;;21.11;79.95;92235.88;4806628;29;20149;-79
2022/06/24 09:55:12;;;;;;;31.33;6.95;;;;;;;21.26;79.92;92237.66;4808083;29;20054;-78
2022/06/24 09:57:39;;;;;;;33.88;6.78;;;;;;;21.46;76.53;92233.00;4813391;29;20043;-79
2022/06/24 10:02:53;;;;;;;24.45;6.60;;;;;;;21.91;72.86;92233.97;4803747;29;20133;-79
2022/06/24 10:05:19;;;;;;;27.67;6.07;;;;;;;21.59;75.57;92241.53;4788955;29;20032;-80
2022/06/24 10:07:47;;;;;;;28.58;6.00;;;;;;;21.96;74.78;92232.88;4789258;29;20051;-79
2022/06/24 10:10:14;;;;;;;30.90;7.15;;;;;;;21.99;76.20;92226.81;4801473;29;20043;-78
2022/06/24 10:12:46;;;;;;;27.70;6.28;;;;;;;21.67;75.67;92223.78;4789541;29;20109;-80
2022/06/24 10:15:14;;;;;;;27.20;6.57;;;;;;;21.04;76.42;92228.56;4805205;29;20035;-79
2022/06/24 10:17:43;;;;;;;22.60;5.30;;;;;;;20.77;74.57;92233.09;4788984;29;20043;-79
2022/06/24 10:20:11;;;;;;;23.85;6.85;;;;;;;21.01;77.10;92231.94;4802727;29;20028;-79
2022/06/24 10:22:38;;;;;;;32.40;6.82;;;;;;;20.87;75.47;92227.16;4789283;29;20027;-79
2022/06/24 10:25:04;;;;;;;36.60;6.78;;;;;;;20.98;75.94;92233.44;4773292;30;20083;-80
2022/06/24 10:27:56;;;;;;;27.15;6.10;;;;;;;21.14;73.33;92221.88;4787798;30;20096;-79
2022/06/24 10:30:39;;;;;;;34.05;6.38;;;;;;;21.11;73.45;92225.25;4800263;29;20078;-80
2022/06/24 10:33:19;;;;;;;23.33;6.00;;;;;;;21.48;70.37;92221.97;4794181;29;20455;-79
2022/06/24 10:36:05;;;;;;;25.48;6.40;;;;;;;21.49;71.31;92228.84;4777654;30;20192;-81
2022/06/24 10:38:40;;;;;;;25.90;6.07;;;;;;;21.55;71.66;92222.88;4792284;30;20089;-80
2022/06/24 10:41:09;;;;;;;27.13;5.82;;;;;;;21.40;72.20;92215.78;4793717;30;20800;-81
2022/06/24 10:43:40;;;;;;;25.83;6.68;;;;;;;21.36;73.19;92215.72;4797963;29;20022;-78
2022/06/24 10:46:12;;;;;;;23.58;6.93;;;;;;;21.39;70.31;92204.38;4809390;29;20138;-81
2022/06/24 10:48:44;;;;;;;27.75;5.97;;;;;;;21.30;69.98;92200.41;4779969;29;20119;-79
2022/06/24 10:51:14;;;;;;;31.67;6.28;;;;;;;21.02;72.99;92195.47;4805942;29;20047;-79
2022/06/24 10:54:01;;;;;;;21.17;5.53;;;;;;;20.87;71.93;92186.50;4804856;29;20031;-79
2022/06/24 10:56:40;;;;;;;33.17;6.90;;;;;;;20.71;74.03;92191.94;4808717;29;20043;-79
2022/06/24 10:59:06;;;;;;;25.15;5.70;;;;;;;20.63;74.31;92180.44;4782429;29;20039;-80
2022/06/24 11:01:32;;;;;;;26.20;6.57;;;;;;;20.64;75.16;92179.31;4795366;29;20062;-79
2022/06/24 11:04:01;;;;;;;26.55;6.38;;;;;;;20.42;78.35;92175.50;4821853;29;20083;-76
2022/06/24 11:06:27;;;;;;;25.42;6.28;;;;;;;20.56;78.64;92167.00;4817260;29;20031;-79
2022/06/24 11:08:52;;;;;;;18.30;5.40;;;;;;;20.58;73.67;92170.88;4816438;29;20050;-80
2022/06/24 11:11:31;;;;;;;38.60;6.80;;;;;;;20.43;72.31;92166.41;4812240;29;20058;-82
2022/06/24 11:13:57;;;;;;;25.85;6.78;;;;;;;20.28;74.09;92167.28;4811879;29;20062;-83
2022/06/24 11:16:27;;;;;;;30.25;6.80;;;;;;;20.31;76.33;92169.22;4813499;29;20058;-82
2022/06/24 11:18:53;;;;;;;23.40;7.30;;;;;;;20.34;77.41;92160.56;4801088;29;20042;-82
2022/06/24 11:21:19;;;;;;;31.40;6.72;;;;;;;20.42;77.03;92151.56;4811209;29;20418;-81
2022/06/24 11:23:46;;;;;;;36.85;6.80;;;;;;;20.56;76.67;92138.56;4816445;29;20050;-81
2022/06/24 11:26:17;;;;;;;26.40;6.32;;;;;;;20.58;74.86;92136.31;4812229;29;20031;-82
2022/06/24 11:28:51;;;;;;;25.75;6.75;;;;;;;20.56;78.73;92130.56;4818991;29;20132;-82
2022/06/24 11:31:22;;;;;;;21.70;6.13;;;;;;;20.53;74.03;92128.59;4820689;29;20049;-81
2022/06/24 11:33:50;;;;;;;30.17;6.97;;;;;;;20.46;71.60;92112.53;4812121;29;20043;-82
2022/06/24 11:36:19;;;;;;;26.05;6.35;;;;;;;20.31;73.10;92116.88;4812408;29;20047;-81